createdAt,value
2022-10-31T00:01:00.634Z,7.88
2022-10-31T00:03:27.716Z,6.90
2022-10-31T00:05:55.064Z,5.93
2022-10-31T00:08:22.182Z,5.93
2022-10-31T00:10:49.252Z,7.95
2022-10-31T00:13:16.718Z,5.25
2022-10-31T00:15:45.148Z,6.18
2022-10-31T00:18:12.472Z,8.82
2022-10-31T00:20:40.169Z,6.78
2022-10-31T00:23:08.014Z,8.90
2022-10-31T00:25:36.747Z,6.07
2022-10-31T00:28:04.605Z,10.05
2022-10-31T00:30:32.134Z,8.93
2022-10-31T00:32:59.692Z,5.55
2022-10-31T00:35:27.181Z,6.80
2022-10-31T00:37:54.329Z,6.70
2022-10-31T00:40:21.500Z,9.18
2022-10-31T00:42:48.650Z,5.70
2022-10-31T00:45:15.881Z,11.07
2022-10-31T00:47:42.999Z,9.45
2022-10-31T00:50:10.281Z,7.95
2022-10-31T00:52:37.497Z,7.93
2022-10-31T00:55:04.694Z,5.68
2022-10-31T00:57:31.803Z,6.53
2022-10-31T00:59:58.978Z,7.25
2022-10-31T01:02:26.212Z,6.30
2022-10-31T01:04:53.372Z,6.93
2022-10-31T01:07:20.580Z,7.20
2022-10-31T01:09:47.689Z,9.55
2022-10-31T01:12:14.763Z,6.53
2022-10-31T01:14:45.745Z,8.20
2022-10-31T01:17:13.706Z,7.40
2022-10-31T01:19:40.851Z,7.43
2022-10-31T01:22:07.943Z,6.50
2022-10-31T01:24:35.041Z,9.15
2022-10-31T01:27:02.136Z,9.00
2022-10-31T01:29:29.213Z,7.20
2022-10-31T01:31:57.425Z,6.97
2022-10-31T01:34:24.641Z,4.97
2022-10-31T01:36:52.367Z,7.05
2022-10-31T01:39:20.425Z,7.35
2022-10-31T01:41:51.813Z,9.18
2022-10-31T01:44:18.926Z,9.32
2022-10-31T01:46:57.185Z,6.65
2022-10-31T01:49:30.232Z,9.05
2022-10-31T01:52:02.853Z,8.32
2022-10-31T01:54:32.206Z,8.85
2022-10-31T01:57:01.022Z,8.00
2022-10-31T01:59:30.990Z,7.15
2022-10-31T02:02:11.354Z,11.82
2022-10-31T02:04:38.638Z,9.02
2022-10-31T02:07:09.071Z,6.30
2022-10-31T02:09:36.305Z,8.85
2022-10-31T02:12:03.991Z,8.57
2022-10-31T02:14:32.133Z,9.10
2022-10-31T02:16:59.294Z,6.93
2022-10-31T02:19:29.196Z,7.75
2022-10-31T02:22:04.093Z,8.05
2022-10-31T02:24:43.593Z,6.20
2022-10-31T02:27:23.020Z,9.05
2022-10-31T02:30:10.451Z,6.35
2022-10-31T02:32:49.750Z,6.90
2022-10-31T02:35:25.757Z,8.27
2022-10-31T02:37:58.736Z,5.68
2022-10-31T02:40:30.630Z,8.10
2022-10-31T02:43:10.714Z,7.88
2022-10-31T02:45:43.067Z,11.18
2022-10-31T02:48:12.686Z,6.90
2022-10-31T02:50:42.325Z,10.02
2022-10-31T02:53:09.374Z,7.70
2022-10-31T02:55:36.449Z,8.10
2022-10-31T02:58:12.220Z,8.15
2022-10-31T03:00:47.084Z,6.38
2022-10-31T03:03:21.219Z,5.65
2022-10-31T03:06:07.085Z,7.63
2022-10-31T03:08:54.419Z,7.30
2022-10-31T03:13:51.580Z,7.82
2022-10-31T03:16:37.135Z,6.55
2022-10-31T03:19:10.319Z,6.35
2022-10-31T03:21:49.124Z,6.53
2022-10-31T03:24:16.789Z,8.05
2022-10-31T03:26:46.793Z,15.82
2022-10-31T03:29:15.986Z,6.95
2022-10-31T03:32:01.883Z,5.55
2022-10-31T03:34:29.895Z,6.80
2022-10-31T03:36:58.848Z,5.85
2022-10-31T03:42:01.721Z,6.03
2022-10-31T03:44:31.099Z,11.05
2022-10-31T03:46:58.670Z,8.13
2022-10-31T03:49:25.907Z,6.82
2022-10-31T03:52:19.505Z,4.60
2022-10-31T03:55:06.814Z,6.00
2022-10-31T04:00:11.797Z,7.40
2022-10-31T04:02:41.538Z,7.35
2022-10-31T04:05:09.544Z,8.35
2022-10-31T04:07:39.136Z,7.68
2022-10-31T04:10:08.503Z,8.20
2022-10-31T04:12:36.337Z,5.97
2022-10-31T04:15:05.120Z,9.05
2022-10-31T04:17:33.878Z,9.85
2022-10-31T04:20:01.770Z,11.18
2022-10-31T04:22:29.857Z,8.52
2022-10-31T04:24:56.927Z,12.10
2022-10-31T04:27:24.072Z,9.18
2022-10-31T04:29:51.167Z,8.98
2022-10-31T04:32:18.636Z,8.13
2022-10-31T04:34:45.777Z,9.75
2022-10-31T04:37:12.838Z,8.18
2022-10-31T04:39:39.934Z,7.55
2022-10-31T04:42:06.991Z,9.75
2022-10-31T04:44:34.090Z,7.78
2022-10-31T04:47:01.189Z,5.63
2022-10-31T04:49:28.282Z,7.45
2022-10-31T04:51:55.373Z,6.65
2022-10-31T04:54:22.460Z,5.43
2022-10-31T04:56:49.606Z,8.10
2022-10-31T04:59:16.729Z,7.85
2022-10-31T05:01:43.897Z,7.70
2022-10-31T05:04:11.078Z,7.25
2022-10-31T05:06:38.149Z,11.27
2022-10-31T05:09:05.269Z,5.47
2022-10-31T05:11:33.401Z,6.47
2022-10-31T05:14:00.509Z,6.55
2022-10-31T05:16:27.698Z,8.48
2022-10-31T05:18:54.841Z,6.80
2022-10-31T05:21:22.078Z,6.22
2022-10-31T05:23:49.245Z,6.35
2022-10-31T05:26:16.405Z,6.18
2022-10-31T05:28:43.497Z,6.20
2022-10-31T05:31:10.761Z,7.32
2022-10-31T05:33:37.860Z,6.00
2022-10-31T05:36:05.210Z,11.25
2022-10-31T05:38:32.267Z,6.03
2022-10-31T05:41:00.913Z,7.00
2022-10-31T05:43:28.145Z,5.78
2022-10-31T05:45:55.908Z,7.60
2022-10-31T05:48:23.039Z,5.68
2022-10-31T05:50:50.677Z,9.35
2022-10-31T05:53:18.061Z,6.57
2022-10-31T05:55:45.369Z,7.03
2022-10-31T05:58:12.658Z,12.07
2022-10-31T06:00:39.822Z,8.75
2022-10-31T06:05:36.280Z,8.73
2022-10-31T06:08:03.740Z,7.20
2022-10-31T06:10:31.153Z,6.45
2022-10-31T06:12:58.333Z,6.80
2022-10-31T06:15:25.433Z,6.95
2022-10-31T06:18:00.014Z,6.15
2022-10-31T06:20:27.360Z,7.57
2022-10-31T06:22:54.416Z,7.60
2022-10-31T06:25:21.498Z,6.85
2022-10-31T06:27:48.683Z,7.63
2022-10-31T06:30:15.989Z,9.07
2022-10-31T06:32:43.067Z,7.28
2022-10-31T06:35:10.232Z,6.75
2022-10-31T06:37:37.292Z,8.00
2022-10-31T06:40:04.544Z,8.10
2022-10-31T06:42:31.662Z,6.35
2022-10-31T06:44:58.824Z,8.95
2022-10-31T06:47:25.976Z,8.38
2022-10-31T06:49:53.065Z,6.65
2022-10-31T06:52:20.121Z,8.57
2022-10-31T06:54:47.185Z,6.47
2022-10-31T06:57:14.263Z,6.90
2022-10-31T06:59:41.370Z,7.63
2022-10-31T07:02:10.654Z,6.53
2022-10-31T07:04:37.869Z,7.75
2022-10-31T07:07:05.207Z,7.78
2022-10-31T07:09:32.316Z,7.10
2022-10-31T07:11:59.355Z,6.75
2022-10-31T07:14:26.450Z,7.57
2022-10-31T07:16:53.588Z,8.30
2022-10-31T07:19:20.850Z,5.82
2022-10-31T07:21:47.946Z,6.70
2022-10-31T07:24:15.084Z,8.60
2022-10-31T07:26:43.258Z,5.90
2022-10-31T07:29:10.518Z,6.80
2022-10-31T07:31:37.694Z,7.72
2022-10-31T07:34:04.833Z,6.80
2022-10-31T07:36:32.048Z,6.10
2022-10-31T07:38:59.942Z,8.57
2022-10-31T07:41:27.039Z,8.07
2022-10-31T07:46:26.127Z,5.13
2022-10-31T07:48:53.200Z,6.75
2022-10-31T07:51:20.256Z,6.70
2022-10-31T07:53:47.350Z,6.30
2022-10-31T07:56:14.451Z,6.28
2022-10-31T07:58:41.501Z,7.18
2022-10-31T08:01:08.777Z,7.47
2022-10-31T08:03:36.167Z,7.47
2022-10-31T08:06:03.258Z,6.82
2022-10-31T08:08:33.381Z,7.00
2022-10-31T08:11:03.184Z,9.38
2022-10-31T08:13:30.330Z,7.80
2022-10-31T08:16:04.272Z,8.43
2022-10-31T08:18:31.489Z,5.80
2022-10-31T08:20:58.591Z,8.20
2022-10-31T08:23:25.759Z,9.45
2022-10-31T08:25:52.884Z,6.78
2022-10-31T08:28:19.973Z,6.65
2022-10-31T08:30:48.274Z,6.78
2022-10-31T08:33:18.048Z,9.18
2022-10-31T08:35:45.266Z,7.43
2022-10-31T08:38:13.242Z,7.78
2022-10-31T08:40:40.549Z,6.47
2022-10-31T08:43:08.647Z,7.13
2022-10-31T08:45:36.225Z,6.97
2022-10-31T08:48:05.114Z,8.65
2022-10-31T08:50:33.649Z,13.68
2022-10-31T08:53:08.442Z,7.00
2022-10-31T08:55:36.573Z,7.72
2022-10-31T08:58:04.700Z,10.00
2022-10-31T09:00:32.039Z,7.43
2022-10-31T09:03:00.290Z,8.52
2022-10-31T09:05:27.463Z,9.38
2022-10-31T09:07:58.859Z,7.72
2022-10-31T09:10:27.069Z,8.18
2022-10-31T09:13:01.042Z,8.90
2022-10-31T09:15:28.941Z,8.88
2022-10-31T09:17:56.193Z,8.32
2022-10-31T09:20:23.625Z,9.77
2022-10-31T09:22:57.274Z,7.53
2022-10-31T09:25:24.603Z,8.55
2022-10-31T09:27:51.973Z,7.13
2022-10-31T09:30:19.161Z,9.25
2022-10-31T09:32:46.253Z,6.50
2022-10-31T09:35:13.440Z,5.88
2022-10-31T09:37:40.627Z,7.53
2022-10-31T09:40:07.915Z,6.78
2022-10-31T09:42:43.551Z,6.80
2022-10-31T09:45:13.914Z,7.97
2022-10-31T09:48:03.926Z,8.60
2022-10-31T09:50:35.982Z,7.30
2022-10-31T09:53:25.658Z,7.97
2022-10-31T09:55:53.364Z,7.00
2022-10-31T09:58:22.186Z,6.85
2022-10-31T10:00:49.863Z,7.38
2022-10-31T10:03:37.521Z,8.55
2022-10-31T10:06:07.658Z,8.15
2022-10-31T10:08:35.010Z,6.20
2022-10-31T10:11:20.902Z,8.15
2022-10-31T10:14:04.813Z,7.97
2022-10-31T10:16:41.022Z,8.93
2022-10-31T10:19:23.540Z,8.50
2022-10-31T10:22:09.888Z,6.40
2022-10-31T10:24:55.514Z,7.60
2022-10-31T10:27:37.932Z,8.30
2022-10-31T10:30:19.025Z,7.90
2022-10-31T10:32:59.291Z,7.00
2022-10-31T10:35:29.470Z,12.10
2022-10-31T10:38:15.192Z,11.13
2022-10-31T10:40:42.746Z,7.28
2022-10-31T10:43:28.463Z,9.98
2022-10-31T10:46:34.301Z,8.18
2022-10-31T10:49:10.112Z,10.55
2022-10-31T10:54:47.343Z,7.32
2022-10-31T10:57:29.347Z,11.80
2022-10-31T10:59:56.694Z,8.07
2022-10-31T11:02:25.930Z,14.82
2022-10-31T11:04:54.424Z,11.88
2022-10-31T11:07:21.824Z,9.25
2022-10-31T11:09:48.979Z,10.18
2022-10-31T11:12:45.407Z,11.35
2022-10-31T11:15:26.740Z,10.68
2022-10-31T11:17:54.632Z,9.30
2022-10-31T11:20:21.851Z,11.02
2022-10-31T11:22:49.740Z,11.18
2022-10-31T11:25:26.709Z,15.32
2022-10-31T11:28:03.685Z,14.68
2022-10-31T11:30:31.673Z,12.40
2022-10-31T11:33:00.048Z,12.23
2022-10-31T11:35:27.604Z,11.55
2022-10-31T11:37:56.169Z,11.05
2022-10-31T11:40:24.852Z,10.43
2022-10-31T11:42:53.692Z,9.20
2022-10-31T11:45:29.244Z,13.73
2022-10-31T11:47:59.825Z,12.05
2022-10-31T11:50:29.378Z,13.90
2022-10-31T11:52:56.870Z,9.57
2022-10-31T11:55:32.539Z,11.73
2022-10-31T11:58:00.034Z,11.35
2022-10-31T12:03:15.120Z,13.30
2022-10-31T12:05:43.075Z,9.80
2022-10-31T12:08:14.061Z,9.57
2022-10-31T12:11:04.508Z,16.20
2022-10-31T12:13:34.671Z,11.50
2022-10-31T12:16:10.997Z,13.25
2022-10-31T12:18:51.462Z,11.32
2022-10-31T12:21:19.141Z,11.10
2022-10-31T12:23:48.764Z,14.82
2022-10-31T12:26:32.504Z,13.23
2022-10-31T12:29:11.650Z,12.93
2022-10-31T12:31:45.005Z,15.55
2022-10-31T12:34:15.144Z,18.63
2022-10-31T12:36:54.563Z,14.10
2022-10-31T12:39:44.398Z,15.60
2022-10-31T12:42:30.023Z,17.27
2022-10-31T12:45:15.711Z,19.48
2022-10-31T12:47:45.899Z,19.08
2022-10-31T12:50:13.368Z,18.30
2022-10-31T12:52:43.665Z,15.85
2022-10-31T12:55:29.340Z,19.00
2022-10-31T12:58:00.643Z,19.40
2022-10-31T13:00:30.461Z,19.73
2022-10-31T13:02:57.958Z,18.90
2022-10-31T13:05:25.028Z,18.50
2022-10-31T13:08:10.797Z,18.83
2022-10-31T13:10:46.691Z,17.95
2022-10-31T13:13:19.987Z,17.02
2022-10-31T13:15:49.890Z,17.48
2022-10-31T13:18:23.726Z,16.90
2022-10-31T13:20:54.732Z,20.88
2022-10-31T13:23:49.952Z,17.65
2022-10-31T13:26:34.503Z,18.63
2022-10-31T13:29:01.642Z,17.42
2022-10-31T13:31:28.914Z,20.60
2022-10-31T13:34:11.129Z,16.98
2022-10-31T13:36:44.505Z,20.13
2022-10-31T13:39:33.753Z,15.77
2022-10-31T13:42:03.661Z,16.85
2022-10-31T13:44:38.571Z,18.58
2022-10-31T13:49:33.019Z,22.45
2022-10-31T13:52:26.869Z,22.00
2022-10-31T13:54:58.052Z,17.77
2022-10-31T13:57:33.914Z,18.75
2022-10-31T14:00:07.404Z,23.08
2022-10-31T14:02:36.539Z,17.25
2022-10-31T14:05:22.504Z,21.02
2022-10-31T14:07:49.951Z,22.33
2022-10-31T14:10:35.502Z,18.52
2022-10-31T14:13:38.420Z,21.15
2022-10-31T14:16:05.561Z,23.88
2022-10-31T14:18:37.491Z,15.82
2022-10-31T14:21:25.048Z,20.98
2022-10-31T14:23:55.336Z,20.33
2022-10-31T14:26:29.574Z,22.42
2022-10-31T14:28:58.566Z,17.98
2022-10-31T14:33:53.530Z,24.25
2022-10-31T14:36:25.498Z,20.13
2022-10-31T14:39:01.879Z,20.17
2022-10-31T14:41:47.660Z,16.65
2022-10-31T14:44:24.513Z,22.55
2022-10-31T14:47:11.991Z,19.88
2022-10-31T14:50:08.310Z,16.77
2022-10-31T14:52:37.974Z,22.08
2022-10-31T14:55:12.978Z,20.75
2022-10-31T14:57:47.233Z,18.05
2022-10-31T15:00:20.841Z,19.55
2022-10-31T15:03:06.720Z,17.02
2022-10-31T15:05:38.154Z,17.52
2022-10-31T15:08:05.389Z,18.35
2022-10-31T15:10:35.884Z,21.45
2022-10-31T15:13:19.304Z,24.75
2022-10-31T15:15:52.011Z,27.40
2022-10-31T15:18:22.664Z,20.67
2022-10-31T15:20:54.510Z,17.45
2022-10-31T15:23:26.243Z,19.80
2022-10-31T15:26:00.344Z,18.52
2022-10-31T15:28:28.003Z,20.55
2022-10-31T15:30:58.490Z,24.02
2022-10-31T15:33:27.208Z,18.85
2022-10-31T15:35:58.634Z,19.83
2022-10-31T15:38:28.909Z,19.75
2022-10-31T15:41:05.188Z,19.88
2022-10-31T15:43:41.212Z,24.35
2022-10-31T15:46:09.955Z,20.77
2022-10-31T15:48:38.112Z,18.67
2022-10-31T15:51:08.812Z,21.30
2022-10-31T15:53:48.462Z,16.85
2022-10-31T15:56:23.713Z,16.85
2022-10-31T15:58:52.710Z,14.98
2022-10-31T16:01:27.532Z,17.70
2022-10-31T16:04:03.238Z,19.23
2022-10-31T16:06:30.825Z,22.30
2022-10-31T16:08:58.197Z,16.02
2022-10-31T16:11:27.775Z,17.85
2022-10-31T16:13:54.940Z,19.45
2022-10-31T16:16:34.611Z,16.92
2022-10-31T16:19:03.872Z,16.73
2022-10-31T16:21:35.127Z,20.75
2022-10-31T16:24:07.310Z,16.13
2022-10-31T16:26:34.659Z,14.93
2022-10-31T16:29:05.110Z,17.83
2022-10-31T16:31:38.998Z,17.58
2022-10-31T16:34:07.565Z,14.77
2022-10-31T16:36:40.221Z,16.20
2022-10-31T16:39:07.580Z,13.30
2022-10-31T16:41:40.829Z,17.33
2022-10-31T16:44:28.301Z,13.27
2022-10-31T16:47:08.033Z,11.57
2022-10-31T16:49:35.311Z,16.75
2022-10-31T16:52:02.521Z,20.27
2022-10-31T16:54:32.205Z,21.42
2022-10-31T16:57:00.828Z,18.48
2022-10-31T16:59:30.735Z,15.23
2022-10-31T17:01:58.115Z,16.85
2022-10-31T17:04:25.461Z,18.48
2022-10-31T17:06:52.782Z,16.33
2022-10-31T17:09:24.543Z,17.20
2022-10-31T17:11:53.412Z,9.73
2022-10-31T17:14:20.640Z,19.65
2022-10-31T17:16:47.772Z,15.15
2022-10-31T17:19:14.884Z,12.70
2022-10-31T17:21:42.059Z,15.82
2022-10-31T17:24:11.977Z,12.40
2022-10-31T17:26:39.160Z,8.15
2022-10-31T17:29:06.311Z,9.88
2022-10-31T17:31:36.519Z,16.00
2022-10-31T17:34:06.246Z,12.93
2022-10-31T17:36:34.207Z,16.85
2022-10-31T17:39:01.460Z,11.00
2022-10-31T17:41:28.584Z,13.70
2022-10-31T17:43:58.919Z,11.38
2022-10-31T17:46:26.149Z,18.92
2022-10-31T17:48:53.295Z,11.98
2022-10-31T17:51:20.464Z,22.92
2022-10-31T17:53:47.926Z,22.17
2022-10-31T17:56:15.166Z,25.77
2022-10-31T17:58:42.304Z,28.50
2022-10-31T18:01:11.038Z,32.45
2022-10-31T18:03:38.797Z,28.23
2022-10-31T18:06:06.228Z,30.35
2022-10-31T18:08:34.589Z,24.17
2022-10-31T18:11:06.269Z,23.77
2022-10-31T18:13:33.324Z,24.48
2022-10-31T18:16:00.414Z,22.27
2022-10-31T18:18:27.557Z,20.48
2022-10-31T18:20:57.671Z,20.48
2022-10-31T18:23:24.777Z,17.75
2022-10-31T18:25:51.840Z,21.77
2022-10-31T18:28:19.053Z,18.60
2022-10-31T18:30:46.153Z,17.75
2022-10-31T18:33:13.306Z,21.02
2022-10-31T18:35:40.674Z,17.95
2022-10-31T18:38:08.195Z,14.40
2022-10-31T18:40:36.144Z,19.52
2022-10-31T18:43:04.187Z,15.63
2022-10-31T18:45:41.539Z,17.33
2022-10-31T18:48:14.268Z,14.02
2022-10-31T18:50:41.380Z,15.50
2022-10-31T18:53:08.797Z,15.07
2022-10-31T18:55:43.888Z,13.60
2022-10-31T18:58:14.534Z,15.63
2022-10-31T19:00:41.951Z,15.52
2022-10-31T19:03:09.120Z,13.38
2022-10-31T19:05:36.269Z,15.27
2022-10-31T19:08:03.439Z,14.77
2022-10-31T19:10:30.526Z,10.68
2022-10-31T19:12:57.773Z,13.27
2022-10-31T19:15:26.108Z,13.38
2022-10-31T19:17:53.382Z,12.13
2022-10-31T19:20:20.904Z,11.93
2022-10-31T19:22:47.990Z,13.07
2022-10-31T19:25:15.179Z,10.30
2022-10-31T19:27:42.253Z,12.77
2022-10-31T19:30:09.609Z,10.25
2022-10-31T19:32:36.981Z,10.85
2022-10-31T19:35:08.921Z,12.23
2022-10-31T19:37:40.005Z,11.15
2022-10-31T19:40:08.631Z,9.25
2022-10-31T19:42:36.003Z,11.80
2022-10-31T19:45:03.762Z,10.05
2022-10-31T19:47:30.916Z,12.75
2022-10-31T19:49:58.025Z,8.38
2022-10-31T19:52:25.105Z,10.52
2022-10-31T19:54:54.530Z,11.27
2022-10-31T19:57:35.839Z,11.68
2022-10-31T20:00:09.333Z,8.48
2022-10-31T20:02:36.383Z,7.43
2022-10-31T20:05:03.449Z,9.27
2022-10-31T20:07:30.531Z,6.97
2022-10-31T20:09:57.628Z,10.07
2022-10-31T20:12:24.657Z,7.00
2022-10-31T20:14:51.954Z,10.63
2022-10-31T20:17:19.091Z,6.90
2022-10-31T20:19:46.237Z,8.05
2022-10-31T20:22:13.638Z,7.40
2022-10-31T20:24:40.709Z,7.88
2022-10-31T20:27:07.868Z,8.75
2022-10-31T20:29:34.986Z,8.00
2022-10-31T20:32:02.235Z,8.45
2022-10-31T20:34:29.296Z,6.47
2022-10-31T20:36:56.409Z,9.30
2022-10-31T20:39:23.482Z,9.02
2022-10-31T20:41:50.641Z,7.40
2022-10-31T20:44:18.001Z,10.20
2022-10-31T20:46:45.085Z,8.85
2022-10-31T20:49:12.266Z,8.15
2022-10-31T20:51:39.428Z,6.47
2022-10-31T20:54:06.946Z,6.43
2022-10-31T20:56:34.121Z,6.55
2022-10-31T20:59:01.308Z,9.88
2022-10-31T21:01:29.796Z,7.60
2022-10-31T21:03:59.637Z,9.25
2022-10-31T21:06:27.382Z,8.82
2022-10-31T21:08:54.591Z,6.57
2022-10-31T21:11:23.618Z,6.47
2022-10-31T21:13:50.862Z,8.93
2022-10-31T21:16:22.078Z,7.75
2022-10-31T21:18:50.047Z,10.18
2022-10-31T21:21:32.176Z,9.65
2022-10-31T21:24:11.528Z,10.45
2022-10-31T21:26:39.709Z,10.15
2022-10-31T21:29:07.412Z,11.05
2022-10-31T21:31:36.000Z,7.05
2022-10-31T21:34:03.228Z,14.13
2022-10-31T21:36:30.403Z,10.25
2022-10-31T21:39:00.784Z,12.65
2022-10-31T21:41:28.493Z,24.60
2022-10-31T21:43:56.205Z,16.15
2022-10-31T21:46:25.314Z,9.18
2022-10-31T21:48:54.995Z,14.93
2022-10-31T21:51:29.820Z,13.95
2022-10-31T21:54:16.058Z,11.43
2022-10-31T21:56:43.687Z,35.53
2022-10-31T21:59:10.884Z,13.73
2022-10-31T22:01:38.262Z,18.33
2022-10-31T22:04:07.951Z,11.13
2022-10-31T22:06:36.015Z,10.73
2022-10-31T22:09:04.070Z,11.55
2022-10-31T22:11:31.260Z,8.13
2022-10-31T22:14:01.782Z,9.52
2022-10-31T22:16:30.069Z,13.05
2022-10-31T22:18:58.508Z,12.98
2022-10-31T22:21:28.160Z,14.15
2022-10-31T22:24:03.265Z,10.57
2022-10-31T22:26:32.334Z,11.77
2022-10-31T22:29:00.711Z,9.05
2022-10-31T22:31:27.965Z,7.72
2022-10-31T22:33:55.424Z,10.55
2022-10-31T22:36:26.250Z,7.75
2022-10-31T22:38:53.358Z,9.98
2022-10-31T22:41:21.647Z,8.23
2022-10-31T22:43:49.259Z,8.25
2022-10-31T22:46:18.086Z,8.30
2022-10-31T22:48:46.470Z,8.57
2022-10-31T22:51:15.320Z,13.63
2022-10-31T22:53:44.013Z,13.43
2022-10-31T22:56:12.145Z,11.05
2022-10-31T22:58:39.213Z,8.30
2022-10-31T23:01:10.560Z,13.23
2022-10-31T23:03:37.776Z,9.77
2022-10-31T23:06:05.776Z,10.30
2022-10-31T23:08:34.814Z,10.95
2022-10-31T23:11:02.052Z,12.07
2022-10-31T23:13:48.176Z,8.90
2022-10-31T23:16:15.316Z,9.25
2022-10-31T23:18:50.036Z,11.15
2022-10-31T23:21:44.008Z,10.90
2022-10-31T23:24:12.108Z,8.50
2022-10-31T23:26:58.256Z,11.82
2022-10-31T23:29:25.342Z,9.07
2022-10-31T23:31:54.592Z,9.55
2022-10-31T23:34:24.878Z,8.52
2022-10-31T23:36:52.115Z,10.23
2022-10-31T23:39:21.391Z,7.47
2022-10-31T23:41:51.629Z,6.18
2022-10-31T23:44:18.765Z,7.82
2022-10-31T23:46:45.909Z,6.93
2022-10-31T23:49:13.137Z,9.35
2022-10-31T23:51:40.322Z,10.98
2022-10-31T23:54:07.590Z,7.13
2022-10-31T23:56:34.734Z,9.00
2022-10-31T23:59:02.223Z,10.45
